Saint-Sauveur, Quebec

7:36 AM EDT on July 24, 2016 (GMT -0400)
Saint-Sauveur | | Change Station

Elev 920 ft 45.88 °N, 74.19 °W | Updated 6 minutes ago

Partly Cloudy
Partly Cloudy
58.5 °F
Feels Like 58.5 °F
N
0.0
Wind Variable Wind from NW

Today
High -- | Low -- °F
--% Chance of Precip.
Yesterday
High -- | Low -- °F
Precip. -- in
Pressure 30.04 in
Visibility 45.0 miles
Clouds Few 18000 ft
Few 25000 ft
Dew Point 54 °F
Humidity 86%
Rainfall 0.00 in
Snow Depth Not available.
5:30 AM 8:34 PM
Waning Gibbous, 77% visible
METAR CYMX 241100Z 30004KT 250V320 45SM FEW180 FEW250 15/11 A3003 RMK AC1CI2 AC TR SLP171
Pressure 30.04 in
Visibility 45.0 miles
Clouds Few 18000 ft
Few 25000 ft
Dew Point 54 °F
Humidity 86%
Rainfall 0.00 in
Snow Depth Not available.
5:30 AM 8:34 PM
Waning Gibbous, 77% visible
METAR CYMX 241100Z 30004KT 250V320 45SM FEW180 FEW250 15/11 A3003 RMK AC1CI2 AC TR SLP171

10-Day Weather Forecast

Almanac

Astronomy

Jul. 24, 2016 Rise Set
Actual Time
Civil Twilight
Nautical Twilight
Astronomical Twilight
Moon
Length of Visible Light
Length of Day
Tomorrow will be .
, % of the Moon is Illuminated

Today's Extremes

Country Highs Country Lows

Community

WunderPhotos

Upload Photos

1,927,048 photos uploaded!

WunderBlog® & News

Nearby

Air Quality

  Air Quality AQ Index Pollutant
Not available.

Snow Depth

Station Depth Elevation

Earthquake Activity

City Distance Mag. Time & Date
Minimum magnitude displayed is 2.5.

Coastal Water Temperatures

Place Temperature

Stations

Nearby Weather Stations

Station Location Temp. Windchill Dew Point Humidity Wind Precip. Elev Updated Type
                   

Watches & Warnings

There are currently no watches in effect.